Ruskin, FL

10:35 PM EDT on September 02, 2014 (GMT -0400)
KFLRUSKI4 | Change Station
CLOSE
Current Station
Personal Weather Station
Location: Ruskin, FL
Elevation: 23 ft
Nearby Weather Stations

Elev 23 ft 27.67 °N, 82.39 °W | Updated 9 seconds ago

Partly Cloudy
Partly Cloudy
77.9 °F
Feels Like 80 °F
N
0.0
Wind Variable Wind from SE
Gusts 4.0 mph

Today
High -- | Low -- °F
--% Chance of Precip.
Yesterday
High -- | Low -- °F
Precip. -- in
7:09 AM 7:49 PM
First Quarter, 57% visible
Pressure 30.03 in
Visibility 10.0 miles
Clouds Few 5500 ft
Heat Index 80 °F
Dew Point 74 °F
Humidity 87%
Rainfall 0.00 in
Snow Depth Not available.
UV 0.0 out of 12
Pollen 5.20 out of 12
Air Quality Not available.
Flu Activity Not available.
METAR KMCF 030158Z AUTO 19008KT 10SM VCTS FEW055 28/24 A3002 RMK AO2 LTG DSNT SW AND NW SLP169 T02770243

More Conditions Fewer Conditions

Pressure 30.03 in
Visibility 10.0 miles
Clouds Few 5500 ft
Heat Index 80 °F
Dew Point 74 °F
Humidity 87%
Rainfall 0.00 in
Snow Depth Not available.
UV 0.0 out of 12
Pollen 5.20 out of 12
Air Quality Not available.
Flu Activity Not available.
METAR KMCF 030158Z AUTO 19008KT 10SM VCTS FEW055 28/24 A3002 RMK AO2 LTG DSNT SW AND NW SLP169 T02770243

More Conditions Fewer Conditions

10-Day Weather Forecast

Almanac

Astronomy

Sep. 02, 2014 Rise Set
Actual Time 7:09 AM EDT 7:49 PM EDT
Civil Twilight 6:45 AM EDT 8:13 PM EDT
Nautical Twilight 6:17 AM EDT 8:40 PM EDT
Astronomical Twilight 5:48 AM EDT 9:09 PM EDT
Moon 2:15 PM EDT (9/2) 12:25 AM EDT (9/2)
Length of Visible Light 13h 27m
Length of Day
12h 40m
Tomorrow will be 1m 34s shorter.
First Quarter, 57% of the Moon is Illuminated
Today
First Quarter
Sep 8
Full
Sep 15
Last Quarter
Sep 24
New
Oct 1
First Quarter

Today's Extremes

State Highs State Lows

Community

WunderPhotos

Upload Photos

1,749,845 photos uploaded!

Nearby

Snow Depth

Station Depth Elevation
No new snow has been reported.

Earthquake Activity

City Distance Mag. Time & Date
No recent earthquake activity has been reported nearby.
Minimum magnitude displayed is 2.5.

Coastal Water Temperatures

Place Temperature
St Petersburg, FL 91.0 °F
Old Port Tampa, FL 89.1 °F
McKay Bay Entrance, FL 89.1 °F

Nearby Weather Stations